Aviation Digital Data Service (ADDS)

Output produced by METARs form (2117 UTC 16 February 2019)
found at http://www.aviationweather.gov/metar/data/
 
METAR text: NFFN 162100Z 34005KT 9999 SCT027TCU SCT048 BKN110 30/25 Q1007 NOSIG
Conditions at: NFFN (NANDI FIJI , FJ) observed 2100 UTC 16 February 2019
Temperature: 30.0°C (86°F)
Dewpoint: 25.0°C (77°F) [RH = 75%]
Pressure (altimeter): 29.73 inches Hg (1007.0 mb)
Winds: from the NNW (340 degrees) at 6 MPH (5 knots; 2.6 m/s)
Visibility: 6 or more miles (10+ km)
Ceiling: 11000 feet AGL
Clouds: scattered clouds at 2700 feet AGL
scattered clouds at 4800 feet AGL
broken clouds at 11000 feet AGL
Weather: no significant weather observed at this time

METAR text: NFFN 162000Z 35004KT 9999 -SHRA SCT027TCU SCT048 BKN110 28/25 Q1007 TEMPO 5000 SHRA
Conditions at: NFFN (NANDI FIJI , FJ) observed 2000 UTC 16 February 2019
Temperature: 28.0°C (82°F)
Dewpoint: 25.0°C (77°F) [RH = 84%]
Pressure (altimeter): 29.73 inches Hg (1007.0 mb)
Winds: from the N (350 degrees) at 5 MPH (4 knots; 2.1 m/s)
Visibility: 6 or more miles (10+ km)
Ceiling: 11000 feet AGL
Clouds: scattered clouds at 2700 feet AGL
scattered clouds at 4800 feet AGL
broken clouds at 11000 feet AGL
Weather: -SHRA  (light rain showers)

METAR text: NFFN 161900Z 08004KT 9999 SCT028 SCT048 26/24 Q1006 NOSIG
Conditions at: NFFN (NANDI FIJI , FJ) observed 1900 UTC 16 February 2019
Temperature: 26.0°C (79°F)
Dewpoint: 24.0°C (75°F) [RH = 89%]
Pressure (altimeter): 29.70 inches Hg (1006.0 mb)
Winds: from the E (80 degrees) at 5 MPH (4 knots; 2.1 m/s)
Visibility: 6 or more miles (10+ km)
Ceiling: at least 12,000 feet AGL
Clouds: scattered clouds at 2800 feet AGL
scattered clouds at 4800 feet AGL
Weather: no significant weather observed at this time

METAR text: NFFN 161800Z 10004KT 040V140 9999 SCT027 SCT048 25/24 Q1006 NOSIG
Conditions at: NFFN (NANDI FIJI , FJ) observed 1800 UTC 16 February 2019
Temperature: 25.0°C (77°F)
Dewpoint: 24.0°C (75°F) [RH = 94%]
Pressure (altimeter): 29.70 inches Hg (1006.0 mb)
Winds: from the E (100 degrees) at 5 MPH (4 knots; 2.1 m/s)
Visibility: 6 or more miles (10+ km)
Ceiling: at least 12,000 feet AGL
Clouds: scattered clouds at 2700 feet AGL
scattered clouds at 4800 feet AGL
Weather: no significant weather observed at this time

METAR text: NFFN 161700Z VRB02KT 200V320 9999 FEW026 SCT047 26/24 Q1006 NOSIG
Conditions at: NFFN (NANDI FIJI , FJ) observed 1700 UTC 16 February 2019
Temperature: 26.0°C (79°F)
Dewpoint: 24.0°C (75°F) [RH = 89%]
Pressure (altimeter): 29.70 inches Hg (1006.0 mb)
Winds: variable direction winds at 2 MPH (2 knots; 1.0 m/s)
Visibility: 6 or more miles (10+ km)
Ceiling: at least 12,000 feet AGL
Clouds: few clouds at 2600 feet AGL
scattered clouds at 4700 feet AGL
Weather: no significant weather observed at this time

METAR text: NFFN 161600Z VRB02KT 050V130 9999 FEW026 SCT047 BKN110 25/24 Q1006 NOSIG
Conditions at: NFFN (NANDI FIJI , FJ) observed 1600 UTC 16 February 2019
Temperature: 25.0°C (77°F)
Dewpoint: 24.0°C (75°F) [RH = 94%]
Pressure (altimeter): 29.70 inches Hg (1006.0 mb)
Winds: variable direction winds at 2 MPH (2 knots; 1.0 m/s)
Visibility: 6 or more miles (10+ km)
Ceiling: 11000 feet AGL
Clouds: few clouds at 2600 feet AGL
scattered clouds at 4700 feet AGL
broken clouds at 11000 feet AGL
Weather: no significant weather observed at this time

METAR text: NFFN 161500Z 13003KT 9999 FEW026 SCT048 BKN110 25/24 Q1006 NOSIG
Conditions at: NFFN (NANDI FIJI , FJ) observed 1500 UTC 16 February 2019
Temperature: 25.0°C (77°F)
Dewpoint: 24.0°C (75°F) [RH = 94%]
Pressure (altimeter): 29.70 inches Hg (1006.0 mb)
Winds: from the SE (130 degrees) at 3 MPH (3 knots; 1.5 m/s)
Visibility: 6 or more miles (10+ km)
Ceiling: 11000 feet AGL
Clouds: few clouds at 2600 feet AGL
scattered clouds at 4800 feet AGL
broken clouds at 11000 feet AGL
Weather: no significant weather observed at this time

METAR text: NFFN 161400Z VRB01KT 9999 -SHRA FEW026 SCT048 BKN110 25/23 Q1006 NOSIG
Conditions at: NFFN (NANDI FIJI , FJ) observed 1400 UTC 16 February 2019
Temperature: 25.0°C (77°F)
Dewpoint: 23.0°C (73°F) [RH = 89%]
Pressure (altimeter): 29.70 inches Hg (1006.0 mb)
Winds: variable direction winds at 1 MPH (1 knots; 0.5 m/s)
Visibility: 6 or more miles (10+ km)
Ceiling: 11000 feet AGL
Clouds: few clouds at 2600 feet AGL
scattered clouds at 4800 feet AGL
broken clouds at 11000 feet AGL
Weather: -SHRA  (light rain showers)

METAR text: NFFN 161300Z 06005KT 9999 FEW027 SCT048 BKN110 25/23 Q1007 NOSIG
Conditions at: NFFN (NANDI FIJI , FJ) observed 1300 UTC 16 February 2019
Temperature: 25.0°C (77°F)
Dewpoint: 23.0°C (73°F) [RH = 89%]
Pressure (altimeter): 29.73 inches Hg (1007.0 mb)
Winds: from the ENE (60 degrees) at 6 MPH (5 knots; 2.6 m/s)
Visibility: 6 or more miles (10+ km)
Ceiling: 11000 feet AGL
Clouds: few clouds at 2700 feet AGL
scattered clouds at 4800 feet AGL
broken clouds at 11000 feet AGL
Weather: no significant weather observed at this time

METAR text: NFFN 161200Z 01007KT 9999 -SHRA SCT027 SCT048 BKN110 26/23 Q1008 NOSIG
Conditions at: NFFN (NANDI FIJI , FJ) observed 1200 UTC 16 February 2019
Temperature: 26.0°C (79°F)
Dewpoint: 23.0°C (73°F) [RH = 84%]
Pressure (altimeter): 29.76 inches Hg (1008.0 mb)
Winds: from the N (10 degrees) at 8 MPH (7 knots; 3.6 m/s)
Visibility: 6 or more miles (10+ km)
Ceiling: 11000 feet AGL
Clouds: scattered clouds at 2700 feet AGL
scattered clouds at 4800 feet AGL
broken clouds at 11000 feet AGL
Weather: -SHRA  (light rain showers)

METAR text: NFFN 161100Z 21003KT 9999 SCT028TCU SCT048 BKN110 24/23 Q1008 TEMPO 5000 SHRA
Conditions at: NFFN (NANDI FIJI , FJ) observed 1100 UTC 16 February 2019
Temperature: 24.0°C (75°F)
Dewpoint: 23.0°C (73°F) [RH = 94%]
Pressure (altimeter): 29.76 inches Hg (1008.0 mb)
Winds: from the SSW (210 degrees) at 3 MPH (3 knots; 1.5 m/s)
Visibility: 6 or more miles (10+ km)
Ceiling: 11000 feet AGL
Clouds: scattered clouds at 2800 feet AGL
scattered clouds at 4800 feet AGL
broken clouds at 11000 feet AGL
Weather: no significant weather observed at this time

METAR text: NFFN 161000Z 23006KT 9999 SCT028TCU SCT048 BKN110 27/25 Q1008 FM1030 5000 SHRA
Conditions at: NFFN (NANDI FIJI , FJ) observed 1000 UTC 16 February 2019
Temperature: 27.0°C (81°F)
Dewpoint: 25.0°C (77°F) [RH = 89%]
Pressure (altimeter): 29.76 inches Hg (1008.0 mb)
Winds: from the SW (230 degrees) at 7 MPH (6 knots; 3.1 m/s)
Visibility: 6 or more miles (10+ km)
Ceiling: 11000 feet AGL
Clouds: scattered clouds at 2800 feet AGL
scattered clouds at 4800 feet AGL
broken clouds at 11000 feet AGL
Weather: no significant weather observed at this time

METAR text: NFFN 160900Z 36005KT 9999 SCT028 SCT048 28/24 Q1007 NOSIG
Conditions at: NFFN (NANDI FIJI , FJ) observed 0900 UTC 16 February 2019
Temperature: 28.0°C (82°F)
Dewpoint: 24.0°C (75°F) [RH = 79%]
Pressure (altimeter): 29.73 inches Hg (1007.0 mb)
Winds: from the N (360 degrees) at 6 MPH (5 knots; 2.6 m/s)
Visibility: 6 or more miles (10+ km)
Ceiling: at least 12,000 feet AGL
Clouds: scattered clouds at 2800 feet AGL
scattered clouds at 4800 feet AGL
Weather: no significant weather observed at this time

METAR text: NFFN 160800Z 36006KT 9999 SCT028 SCT048 BKN120 29/24 Q1006 NOSIG
Conditions at: NFFN (NANDI FIJI , FJ) observed 0800 UTC 16 February 2019
Temperature: 29.0°C (84°F)
Dewpoint: 24.0°C (75°F) [RH = 74%]
Pressure (altimeter): 29.70 inches Hg (1006.0 mb)
Winds: from the N (360 degrees) at 7 MPH (6 knots; 3.1 m/s)
Visibility: 6 or more miles (10+ km)
Ceiling: 12000 feet AGL
Clouds: scattered clouds at 2800 feet AGL
scattered clouds at 4800 feet AGL
broken clouds at 12000 feet AGL
Weather: no significant weather observed at this time

METAR text: NFFN 160700Z 36006KT 9999 SCT028TCU SCT048 BKN120 29/25 Q1005 NOSIG
Conditions at: NFFN (NANDI FIJI , FJ) observed 0700 UTC 16 February 2019
Temperature: 29.0°C (84°F)
Dewpoint: 25.0°C (77°F) [RH = 79%]
Pressure (altimeter): 29.68 inches Hg (1005.0 mb)
Winds: from the N (360 degrees) at 7 MPH (6 knots; 3.1 m/s)
Visibility: 6 or more miles (10+ km)
Ceiling: 12000 feet AGL
Clouds: scattered clouds at 2800 feet AGL
scattered clouds at 4800 feet AGL
broken clouds at 12000 feet AGL
Weather: no significant weather observed at this time

METAR text: NFFN 160600Z 35009KT 9999 SCT028TCU SCT048 BKN120 31/25 Q1005 NOSIG
Conditions at: NFFN (NANDI FIJI , FJ) observed 0600 UTC 16 February 2019
Temperature: 31.0°C (88°F)
Dewpoint: 25.0°C (77°F) [RH = 71%]
Pressure (altimeter): 29.68 inches Hg (1005.0 mb)
Winds: from the N (350 degrees) at 10 MPH (9 knots; 4.6 m/s)
Visibility: 6 or more miles (10+ km)
Ceiling: 12000 feet AGL
Clouds: scattered clouds at 2800 feet AGL
scattered clouds at 4800 feet AGL
broken clouds at 12000 feet AGL
Weather: no significant weather observed at this time

METAR text: NFFN 160500Z 33011KT 9999 SCT028TCU SCT048 BKN120 32/24 Q1005 NOSIG
Conditions at: NFFN (NANDI FIJI , FJ) observed 0500 UTC 16 February 2019
Temperature: 32.0°C (90°F)
Dewpoint: 24.0°C (75°F) [RH = 63%]
Pressure (altimeter): 29.68 inches Hg (1005.0 mb)
Winds: from the NNW (330 degrees) at 13 MPH (11 knots; 5.7 m/s)
Visibility: 6 or more miles (10+ km)
Ceiling: 12000 feet AGL
Clouds: scattered clouds at 2800 feet AGL
scattered clouds at 4800 feet AGL
broken clouds at 12000 feet AGL
Weather: no significant weather observed at this time

METAR text: NFFN 160400Z 32012KT 9999 SCT028TCU SCT048 BKN120 31/25 Q1005 NOSIG
Conditions at: NFFN (NANDI FIJI , FJ) observed 0400 UTC 16 February 2019
Temperature: 31.0°C (88°F)
Dewpoint: 25.0°C (77°F) [RH = 71%]
Pressure (altimeter): 29.68 inches Hg (1005.0 mb)
Winds: from the NW (320 degrees) at 14 MPH (12 knots; 6.2 m/s)
Visibility: 6 or more miles (10+ km)
Ceiling: 12000 feet AGL
Clouds: scattered clouds at 2800 feet AGL
scattered clouds at 4800 feet AGL
broken clouds at 12000 feet AGL
Weather: no significant weather observed at this time

METAR text: NFFN 160300Z 33013KT 9999 SCT028TCU SCT049 BKN120 32/25 Q1005 NOSIG
Conditions at: NFFN (NANDI FIJI , FJ) observed 0300 UTC 16 February 2019
Temperature: 32.0°C (90°F)
Dewpoint: 25.0°C (77°F) [RH = 67%]
Pressure (altimeter): 29.68 inches Hg (1005.0 mb)
Winds: from the NNW (330 degrees) at 15 MPH (13 knots; 6.7 m/s)
Visibility: 6 or more miles (10+ km)
Ceiling: 12000 feet AGL
Clouds: scattered clouds at 2800 feet AGL
scattered clouds at 4900 feet AGL
broken clouds at 12000 feet AGL
Weather: no significant weather observed at this time

METAR text: NFFN 160200Z 34011KT 9999 SCT027TCU SCT048 32/25 Q1005 NOSIG
Conditions at: NFFN (NANDI FIJI , FJ) observed 0200 UTC 16 February 2019
Temperature: 32.0°C (90°F)
Dewpoint: 25.0°C (77°F) [RH = 67%]
Pressure (altimeter): 29.68 inches Hg (1005.0 mb)
Winds: from the NNW (340 degrees) at 13 MPH (11 knots; 5.7 m/s)
Visibility: 6 or more miles (10+ km)
Ceiling: at least 12,000 feet AGL
Clouds: scattered clouds at 2700 feet AGL
scattered clouds at 4800 feet AGL
Weather: no significant weather observed at this time

METAR text: NFFN 160100Z 01011KT 9999 SCT027TCU SCT048 31/26 Q1006 FM0230 5000 SHRA
Conditions at: NFFN (NANDI FIJI , FJ) observed 0100 UTC 16 February 2019
Temperature: 31.0°C (88°F)
Dewpoint: 26.0°C (79°F) [RH = 75%]
Pressure (altimeter): 29.70 inches Hg (1006.0 mb)
Winds: from the N (10 degrees) at 13 MPH (11 knots; 5.7 m/s)
Visibility: 6 or more miles (10+ km)
Ceiling: at least 12,000 feet AGL
Clouds: scattered clouds at 2700 feet AGL
scattered clouds at 4800 feet AGL
Weather: no significant weather observed at this time

METAR text: NFFN 160000Z 06009KT 9999 SCT027TCU SCT048 BKN120 30/25 Q1006 FM0100 5000 SHRA
Conditions at: NFFN (NANDI FIJI , FJ) observed 0000 UTC 16 February 2019
Temperature: 30.0°C (86°F)
Dewpoint: 25.0°C (77°F) [RH = 75%]
Pressure (altimeter): 29.70 inches Hg (1006.0 mb)
Winds: from the ENE (60 degrees) at 10 MPH (9 knots; 4.6 m/s)
Visibility: 6 or more miles (10+ km)
Ceiling: 12000 feet AGL
Clouds: scattered clouds at 2700 feet AGL
scattered clouds at 4800 feet AGL
broken clouds at 12000 feet AGL
Weather: no significant weather observed at this time

METAR text: NFFN 152300Z 04008KT 9999 SCT027TCU BKN120 31/25 Q1007 NOSIG
Conditions at: NFFN (NANDI FIJI , FJ) observed 2300 UTC 15 February 2019
Temperature: 31.0°C (88°F)
Dewpoint: 25.0°C (77°F) [RH = 71%]
Pressure (altimeter): 29.73 inches Hg (1007.0 mb)
Winds: from the NE (40 degrees) at 9 MPH (8 knots; 4.1 m/s)
Visibility: 6 or more miles (10+ km)
Ceiling: 12000 feet AGL
Clouds: scattered clouds at 2700 feet AGL
broken clouds at 12000 feet AGL
Weather: no significant weather observed at this time

METAR text: NFFN 152200Z 02006KT 9999 SCT026TCU SCT048 BKN120 30/26 Q1007 NOSIG
Conditions at: NFFN (NANDI FIJI , FJ) observed 2200 UTC 15 February 2019
Temperature: 30.0°C (86°F)
Dewpoint: 26.0°C (79°F) [RH = 79%]
Pressure (altimeter): 29.73 inches Hg (1007.0 mb)
Winds: from the NNE (20 degrees) at 7 MPH (6 knots; 3.1 m/s)
Visibility: 6 or more miles (10+ km)
Ceiling: 12000 feet AGL
Clouds: scattered clouds at 2600 feet AGL
scattered clouds at 4800 feet AGL
broken clouds at 12000 feet AGL
Weather: no significant weather observed at this time

METAR text: NFFN 152100Z 09004KT 9999 SCT026TCU SCT048 BKN110 27/25 Q1007 NOSIG
Conditions at: NFFN (NANDI FIJI , FJ) observed 2100 UTC 15 February 2019
Temperature: 27.0°C (81°F)
Dewpoint: 25.0°C (77°F) [RH = 89%]
Pressure (altimeter): 29.73 inches Hg (1007.0 mb)
Winds: from the E (90 degrees) at 5 MPH (4 knots; 2.1 m/s)
Visibility: 6 or more miles (10+ km)
Ceiling: 11000 feet AGL
Clouds: scattered clouds at 2600 feet AGL
scattered clouds at 4800 feet AGL
broken clouds at 11000 feet AGL
Weather: no significant weather observed at this time

METAR text: NFFN 152000Z 10005KT 9999 -SHRA SCT024TCU BKN047 BKN110 26/25 Q1007 NOSIG
Conditions at: NFFN (NANDI FIJI , FJ) observed 2000 UTC 15 February 2019
Temperature: 26.0°C (79°F)
Dewpoint: 25.0°C (77°F) [RH = 94%]
Pressure (altimeter): 29.73 inches Hg (1007.0 mb)
Winds: from the E (100 degrees) at 6 MPH (5 knots; 2.6 m/s)
Visibility: 6 or more miles (10+ km)
Ceiling: 4700 feet AGL
Clouds: scattered clouds at 2400 feet AGL
broken clouds at 4700 feet AGL
broken clouds at 11000 feet AGL
Weather: -SHRA  (light rain showers)

METAR text: NFFN 151900Z 09005KT 9999 SCT024TCU BKN047 BKN110 25/24 Q1006 NOSIG
Conditions at: NFFN (NANDI FIJI , FJ) observed 1900 UTC 15 February 2019
Temperature: 25.0°C (77°F)
Dewpoint: 24.0°C (75°F) [RH = 94%]
Pressure (altimeter): 29.70 inches Hg (1006.0 mb)
Winds: from the E (90 degrees) at 6 MPH (5 knots; 2.6 m/s)
Visibility: 6 or more miles (10+ km)
Ceiling: 4700 feet AGL
Clouds: scattered clouds at 2400 feet AGL
broken clouds at 4700 feet AGL
broken clouds at 11000 feet AGL
Weather: no significant weather observed at this time

METAR text: NFFN 151800Z 07005KT 9999 -SHRA FEW007 SCT024TCU BKN047 25/24 Q1006 NOSIG
Conditions at: NFFN (NANDI FIJI , FJ) observed 1800 UTC 15 February 2019
Temperature: 25.0°C (77°F)
Dewpoint: 24.0°C (75°F) [RH = 94%]
Pressure (altimeter): 29.70 inches Hg (1006.0 mb)
Winds: from the ENE (70 degrees) at 6 MPH (5 knots; 2.6 m/s)
Visibility: 6 or more miles (10+ km)
Ceiling: 4700 feet AGL
Clouds: few clouds at 700 feet AGL
scattered clouds at 2400 feet AGL
broken clouds at 4700 feet AGL
Weather: -SHRA  (light rain showers)

METAR text: NFFN 151700Z 09006KT 9999 FEW007 SCT024TCU BKN047 25/24 Q1005 FM0600 3000 TSRA FEW018CB
Conditions at: NFFN (NANDI FIJI , FJ) observed 1700 UTC 15 February 2019
Temperature: 25.0°C (77°F)
Dewpoint: 24.0°C (75°F) [RH = 94%]
Pressure (altimeter): 29.68 inches Hg (1005.0 mb)
Winds: from the E (90 degrees) at 7 MPH (6 knots; 3.1 m/s)
Visibility: 6 or more miles (10+ km)
Ceiling: 4700 feet AGL
Clouds: few clouds at 700 feet AGL
scattered clouds at 2400 feet AGL
broken clouds at 4700 feet AGL
Weather: no significant weather observed at this time

METAR text: NFFN 151600Z VRB02KT 9999 FEW007 SCT024TCU BKN047 25/24 Q1005 TEMPO 5000 SHRA
Conditions at: NFFN (NANDI FIJI , FJ) observed 1600 UTC 15 February 2019
Temperature: 25.0°C (77°F)
Dewpoint: 24.0°C (75°F) [RH = 94%]
Pressure (altimeter): 29.68 inches Hg (1005.0 mb)
Winds: variable direction winds at 2 MPH (2 knots; 1.0 m/s)
Visibility: 6 or more miles (10+ km)
Ceiling: 4700 feet AGL
Clouds: few clouds at 700 feet AGL
scattered clouds at 2400 feet AGL
broken clouds at 4700 feet AGL
Weather: no significant weather observed at this time

METAR text: NFFN 151500Z 08005KT 9999 FEW007 SCT024TCU BKN047 25/24 Q1005 TEMPO 5000 SHRA
Conditions at: NFFN (NANDI FIJI , FJ) observed 1500 UTC 15 February 2019
Temperature: 25.0°C (77°F)
Dewpoint: 24.0°C (75°F) [RH = 94%]
Pressure (altimeter): 29.68 inches Hg (1005.0 mb)
Winds: from the E (80 degrees) at 6 MPH (5 knots; 2.6 m/s)
Visibility: 6 or more miles (10+ km)
Ceiling: 4700 feet AGL
Clouds: few clouds at 700 feet AGL
scattered clouds at 2400 feet AGL
broken clouds at 4700 feet AGL
Weather: no significant weather observed at this time

METAR text: NFFN 151400Z 08006KT 9999 -SHRA SCT024TCU BKN047 BKN110 26/24 Q1005 TEMPO 5000 SHRA
Conditions at: NFFN (NANDI FIJI , FJ) observed 1400 UTC 15 February 2019
Temperature: 26.0°C (79°F)
Dewpoint: 24.0°C (75°F) [RH = 89%]
Pressure (altimeter): 29.68 inches Hg (1005.0 mb)
Winds: from the E (80 degrees) at 7 MPH (6 knots; 3.1 m/s)
Visibility: 6 or more miles (10+ km)
Ceiling: 4700 feet AGL
Clouds: scattered clouds at 2400 feet AGL
broken clouds at 4700 feet AGL
broken clouds at 11000 feet AGL
Weather: -SHRA  (light rain showers)

METAR text: NFFN 151300Z 07006KT 9999 -SHRA SCT024TCU SCT047 BKN110 26/25 Q1006 TEMPO 5000 SHRA
Conditions at: NFFN (NANDI FIJI , FJ) observed 1300 UTC 15 February 2019
Temperature: 26.0°C (79°F)
Dewpoint: 25.0°C (77°F) [RH = 94%]
Pressure (altimeter): 29.70 inches Hg (1006.0 mb)
Winds: from the ENE (70 degrees) at 7 MPH (6 knots; 3.1 m/s)
Visibility: 6 or more miles (10+ km)
Ceiling: 11000 feet AGL
Clouds: scattered clouds at 2400 feet AGL
scattered clouds at 4700 feet AGL
broken clouds at 11000 feet AGL
Weather: -SHRA  (light rain showers)

METAR text: NFFN 151200Z 11004KT 9999 SCT024TCU SCT047 BKN110 26/25 Q1006 TEMPO 5000 SHRA
Conditions at: NFFN (NANDI FIJI , FJ) observed 1200 UTC 15 February 2019
Temperature: 26.0°C (79°F)
Dewpoint: 25.0°C (77°F) [RH = 94%]
Pressure (altimeter): 29.70 inches Hg (1006.0 mb)
Winds: from the ESE (110 degrees) at 5 MPH (4 knots; 2.1 m/s)
Visibility: 6 or more miles (10+ km)
Ceiling: 11000 feet AGL
Clouds: scattered clouds at 2400 feet AGL
scattered clouds at 4700 feet AGL
broken clouds at 11000 feet AGL
Weather: no significant weather observed at this time

METAR text: NFFN 151100Z 34003KT 9999 SCT024 SCT047 BKN110 27/25 Q1007 TEMPO 5000 SHRA
Conditions at: NFFN (NANDI FIJI , FJ) observed 1100 UTC 15 February 2019
Temperature: 27.0°C (81°F)
Dewpoint: 25.0°C (77°F) [RH = 89%]
Pressure (altimeter): 29.73 inches Hg (1007.0 mb)
Winds: from the NNW (340 degrees) at 3 MPH (3 knots; 1.5 m/s)
Visibility: 6 or more miles (10+ km)
Ceiling: 11000 feet AGL
Clouds: scattered clouds at 2400 feet AGL
scattered clouds at 4700 feet AGL
broken clouds at 11000 feet AGL
Weather: no significant weather observed at this time

METAR text: NFFN 151000Z 02005KT 9999 -SHRA SCT024 BKN046 OVC110 26/25 Q1006 TEMPO 5000 SHRA
Conditions at: NFFN (NANDI FIJI , FJ) observed 1000 UTC 15 February 2019
Temperature: 26.0°C (79°F)
Dewpoint: 25.0°C (77°F) [RH = 94%]
Pressure (altimeter): 29.70 inches Hg (1006.0 mb)
Winds: from the NNE (20 degrees) at 6 MPH (5 knots; 2.6 m/s)
Visibility: 6 or more miles (10+ km)
Ceiling: 4600 feet AGL
Clouds: scattered clouds at 2400 feet AGL
broken clouds at 4600 feet AGL
overcast cloud deck at 11000 feet AGL
Weather: -SHRA  (light rain showers)

Forecast for: NFFN (NANDI FIJI , FJ)
Text: TAF NFFN 161721Z 1618/1718 26008KT 9999 FEW025 SCT045
Forecast period: 1800 to 2200 UTC 16 February 2019
Forecast type: FROM: standard forecast or significant change
Winds: from the W (260 degrees) at 9 MPH (8 knots; 4.1 m/s)
Visibility: 6 or more miles 10+ km)
Ceiling: at least 12,000 feet AGL
Clouds: few clouds at 2500 feet AGL
scattered clouds at 4500 feet AGL
Weather: no significant weather forecast for this period
Text: PROB30
Forecast period: 1800 UTC 16 February 2019 to 0000 UTC 17 February 2019
Forecast type: TEMPORARY: The following changes expected for less than half the time period
Visibility: 3 miles (5 km)
Ceiling: 1500 feet AGL
Clouds: broken clouds at 1500 feet AGL
Weather: SHRA  (rain showers)
Text: TEMPO 1618/1624 5000 SHRA BKN015
Forecast period: 2200 UTC 16 February 2019 to 1800 UTC 17 February 2019
Forecast type: BECOMING: Conditions expected to become as follows by 0000 UTC 17 February 2019
Winds: from the NW (320 degrees) at 14 MPH (12 knots; 6.2 m/s)
Visibility: 6 or more miles 10+ km)
Ceiling: at least 12,000 feet AGL
Clouds: few clouds at 2500 feet AGL
scattered clouds at 4500 feet AGL
Weather: no significant weather forecast for this period
Text: BECMG 1622/1624 32012KT
Forecast period: 0200 to 0600 UTC 17 February 2019
Forecast type: TEMPORARY: The following changes expected for less than half the time period
Visibility: 1.86 miles (2.99 km)
Ceiling: 1500 feet AGL
Clouds: broken clouds at 1500 feet AGL
few clouds at 1800 feet AGL
Weather: TSRA  (rain associated with thunderstorm(s))
Text: PROB30
Forecast period: 0600 to 1200 UTC 17 February 2019
Forecast type: TEMPORARY: The following changes expected for less than half the time period
Visibility: 3 miles (5 km)
Ceiling: 1500 feet AGL
Clouds: broken clouds at 1500 feet AGL
Weather: SHRA  (rain showers)